Time;durP1;ratioP1;P1;durP2;ratioP2;P2;SDS_P1;SDS_P2;PMS_P1;PMS_P2;Temp;Humidity;BMP_temperature;BMP_pressure;BME280_temperature;BME280_humidity;BME280_pressure;Samples;Min_cycle;Max_cycle;Signal;HPM_P1;HPM_P2
2021/01/10 00:00:13;;;;;;;21.23;12.93;;;;;;;-2.23;93.10;101452.75;5094328;28;20028;-85
2021/01/10 00:02:39;;;;;;;21.42;12.77;;;;;;;-2.29;93.58;101464.28;5093154;28;20028;-85
2021/01/10 00:05:06;;;;;;;20.73;12.65;;;;;;;-2.23;93.38;101454.44;5094730;28;20391;-84
2021/01/10 00:07:31;;;;;;;21.42;12.52;;;;;;;-2.23;93.26;101459.50;5092616;28;20027;-83
2021/01/10 00:09:57;;;;;;;22.77;13.13;;;;;;;-2.30;93.23;101445.66;5092238;28;20444;-83
2021/01/10 00:12:23;;;;;;;21.30;12.23;;;;;;;-2.33;93.06;101446.38;5093460;28;20028;-83
2021/01/10 00:14:49;;;;;;;24.25;13.27;;;;;;;-2.27;93.85;101442.38;5092240;28;20016;-83
2021/01/10 00:17:14;;;;;;;20.05;12.30;;;;;;;-2.26;93.69;101439.91;5092241;28;20023;-83
2021/01/10 00:19:42;;;;;;;22.10;12.73;;;;;;;-2.28;93.38;101436.41;5092145;28;20087;-83
2021/01/10 00:22:13;;;;;;;20.45;12.60;;;;;;;-2.29;93.79;101433.81;5092115;28;20062;-83
2021/01/10 00:24:42;;;;;;;17.77;10.82;;;;;;;-2.37;93.09;101441.94;5092643;28;20031;-83
2021/01/10 00:27:31;;;;;;;21.67;11.90;;;;;;;-2.36;92.87;101447.88;5104163;28;20024;-83
2021/01/10 00:29:56;;;;;;;19.55;11.38;;;;;;;-2.34;93.10;101451.34;5117824;28;20016;-83
2021/01/10 00:32:21;;;;;;;21.02;11.95;;;;;;;-2.34;93.05;101454.78;5118523;28;20087;-83
2021/01/10 00:34:47;;;;;;;23.67;13.63;;;;;;;-2.33;92.67;101461.59;5118763;28;20096;-83
2021/01/10 00:37:17;;;;;;;22.70;12.90;;;;;;;-2.35;92.84;101459.78;5117153;28;20028;-84
2021/01/10 00:39:42;;;;;;;20.42;12.25;;;;;;;-2.34;93.24;101458.97;5118146;28;20016;-84
2021/01/10 00:42:09;;;;;;;23.55;13.25;;;;;;;-2.40;92.98;101461.22;5119239;28;20052;-84
2021/01/10 00:44:34;;;;;;;21.40;12.57;;;;;;;-2.34;93.45;101458.97;5118223;28;20028;-84
2021/01/10 00:46:59;;;;;;;23.30;13.65;;;;;;;-2.36;93.18;101458.91;5098413;28;20024;-83
2021/01/10 00:49:25;;;;;;;22.17;12.50;;;;;;;-2.38;93.08;101457.09;5096807;28;20024;-83
2021/01/10 00:51:52;;;;;;;20.50;12.18;;;;;;;-2.41;93.29;101456.94;5097753;28;20092;-83
2021/01/10 00:54:17;;;;;;;22.05;12.95;;;;;;;-2.41;93.01;101456.94;5095920;28;20132;-83
2021/01/10 00:56:42;;;;;;;20.27;11.85;;;;;;;-2.43;93.62;101461.06;5096943;28;20039;-83
2021/01/10 00:59:07;;;;;;;22.60;12.77;;;;;;;-2.48;93.61;101447.28;5095749;28;20024;-83
2021/01/10 01:01:32;;;;;;;23.58;13.50;;;;;;;-2.45;93.83;101458.47;5096064;28;20036;-83
2021/01/10 01:03:58;;;;;;;24.60;13.65;;;;;;;-2.32;93.78;101465.00;5096857;28;20384;-85
2021/01/10 01:06:23;;;;;;;23.38;12.98;;;;;;;-2.29;94.34;101470.25;5095683;28;20055;-84
2021/01/10 01:08:48;;;;;;;20.13;12.52;;;;;;;-2.42;92.99;101476.41;5095555;28;20521;-84
2021/01/10 01:11:14;;;;;;;19.48;12.13;;;;;;;-2.43;93.19;101473.78;5095471;28;20089;-84
2021/01/10 01:13:39;;;;;;;23.48;13.10;;;;;;;-2.34;93.68;101477.66;5095275;28;20024;-84
2021/01/10 01:16:07;;;;;;;20.83;12.00;;;;;;;-2.40;93.05;101487.53;5095314;28;20385;-84
2021/01/10 01:18:34;;;;;;;20.77;12.60;;;;;;;-2.50;92.90;101481.91;5096745;28;20036;-84
2021/01/10 01:20:59;;;;;;;23.88;13.98;;;;;;;-2.48;93.59;101482.84;5095534;28;20124;-84
2021/01/10 01:23:24;;;;;;;24.50;14.30;;;;;;;-2.51;93.78;101485.25;5095292;28;20534;-84
2021/01/10 01:25:50;;;;;;;25.48;14.23;;;;;;;-2.51;93.36;101486.09;5095220;28;20028;-84
2021/01/10 01:28:15;;;;;;;26.67;14.68;;;;;;;-2.50;93.84;101485.31;5095169;28;20065;-84
2021/01/10 01:30:40;;;;;;;25.25;14.43;;;;;;;-2.49;93.88;101487.06;5096433;28;20472;-84
2021/01/10 01:33:05;;;;;;;24.42;14.43;;;;;;;-2.53;94.08;101489.38;5097092;28;20114;-84
2021/01/10 01:35:31;;;;;;;24.55;14.18;;;;;;;-2.59;93.62;101485.72;5096024;28;20035;-84
2021/01/10 01:37:57;;;;;;;26.40;15.07;;;;;;;-2.72;94.06;101483.38;5095296;28;20019;-84
2021/01/10 01:40:22;;;;;;;27.10;15.18;;;;;;;-2.72;93.86;101488.44;5095182;28;20048;-84
2021/01/10 01:42:48;;;;;;;25.00;14.20;;;;;;;-2.73;94.47;101491.78;5095028;28;20511;-84
2021/01/10 01:45:13;;;;;;;26.63;15.13;;;;;;;-2.71;93.95;101486.78;5096244;28;20115;-84
2021/01/10 01:47:39;;;;;;;26.40;14.95;;;;;;;-2.74;94.12;101479.00;5096259;28;20028;-84
2021/01/10 01:50:06;;;;;;;24.67;13.63;;;;;;;-2.75;94.44;101478.13;5095064;28;20097;-84
2021/01/10 01:52:32;;;;;;;24.17;14.32;;;;;;;-2.82;93.67;101473.56;5094793;28;20405;-84
2021/01/10 01:54:58;;;;;;;27.20;16.08;;;;;;;-2.83;93.87;101474.34;5095578;28;20027;-84
2021/01/10 01:57:23;;;;;;;27.52;15.88;;;;;;;-2.86;94.21;101477.59;5094674;28;20020;-84
2021/01/10 01:59:48;;;;;;;24.27;15.18;;;;;;;-2.84;94.28;101480.22;5096215;28;20028;-84
2021/01/10 02:02:14;;;;;;;27.38;15.43;;;;;;;-2.86;94.28;101475.06;5094513;28;20114;-84
2021/01/10 02:04:47;;;;;;;24.35;15.02;;;;;;;-2.83;94.02;101474.34;5094606;28;20028;-84
2021/01/10 02:07:18;;;;;;;23.10;14.25;;;;;;;-2.87;94.26;101472.44;5095947;28;20438;-84
2021/01/10 02:09:50;;;;;;;24.77;14.18;;;;;;;-2.83;94.15;101475.22;5094391;28;20035;-84
2021/01/10 02:12:18;;;;;;;26.77;15.65;;;;;;;-2.82;94.04;101474.41;5094645;28;20066;-84
2021/01/10 02:15:00;;;;;;;30.33;15.75;;;;;;;-2.82;94.20;101476.97;5094388;28;20425;-84
2021/01/10 02:17:28;;;;;;;25.02;14.68;;;;;;;-2.84;93.83;101472.59;5094455;28;20030;-84
2021/01/10 02:20:13;;;;;;;25.65;15.50;;;;;;;-2.73;94.25;101468.94;5095517;28;20380;-84
2021/01/10 02:23:01;;;;;;;27.45;15.60;;;;;;;-2.66;93.74;101472.66;5095464;28;20051;-84
2021/01/10 02:25:27;;;;;;;28.42;15.75;;;;;;;-2.63;93.81;101473.66;5095554;28;20031;-84
2021/01/10 02:27:53;;;;;;;27.65;16.00;;;;;;;-2.61;93.57;101472.09;5094169;28;20206;-84
2021/01/10 02:30:19;;;;;;;25.77;14.93;;;;;;;-2.56;93.72;101468.09;5094015;28;20542;-84
2021/01/10 02:32:48;;;;;;;25.33;15.50;;;;;;;-2.49;93.31;101466.75;5093890;28;20028;-84
2021/01/10 02:35:16;;;;;;;24.02;15.43;;;;;;;-2.48;93.17;101458.31;5105196;28;20074;-84
2021/01/10 02:37:50;;;;;;;24.52;14.93;;;;;;;-2.51;93.65;101452.22;5099886;22;20068;-80
2021/01/10 02:40:21;;;;;;;29.45;15.80;;;;;;;-2.44;93.13;101456.78;5078481;28;20029;-83
2021/01/10 02:43:04;;;;;;;25.50;14.70;;;;;;;-2.51;93.07;101447.16;5079675;28;20024;-83
2021/01/10 02:45:31;;;;;;;25.48;15.82;;;;;;;-2.49;93.03;101440.44;5080223;28;20395;-83
2021/01/10 02:48:24;;;;;;;25.85;15.20;;;;;;;-2.45;92.81;101438.16;5060335;28;20032;-83
2021/01/10 02:50:50;;;;;;;23.27;14.43;;;;;;;-2.44;92.49;101434.81;5061827;28;20020;-83
2021/01/10 02:53:15;;;;;;;24.83;15.23;;;;;;;-2.43;93.18;101426.41;5062677;28;20027;-83
2021/01/10 02:55:41;;;;;;;25.13;14.82;;;;;;;-2.58;93.20;101434.16;5061243;28;20063;-83
2021/01/10 02:58:22;;;;;;;28.20;15.27;;;;;;;-2.56;93.33;101426.59;5079886;28;20036;-83
2021/01/10 03:00:50;;;;;;;26.33;14.68;;;;;;;-2.61;93.16;101426.38;5061475;28;20050;-83
2021/01/10 03:03:16;;;;;;;26.23;15.90;;;;;;;-2.63;93.79;101434.72;5061498;28;20028;-83
2021/01/10 03:05:42;;;;;;;26.63;16.27;;;;;;;-2.57;93.75;101425.72;5061409;28;20032;-83
2021/01/10 03:08:08;;;;;;;26.50;15.45;;;;;;;-2.61;93.67;101430.59;5061585;28;20020;-83
2021/01/10 03:10:34;;;;;;;27.80;15.32;;;;;;;-2.65;93.70;101414.34;5061205;28;20025;-83
2021/01/10 03:13:00;;;;;;;27.80;16.40;;;;;;;-2.63;93.49;101415.28;5077200;28;20020;-83
2021/01/10 03:15:27;;;;;;;26.02;15.30;;;;;;;-2.61;93.24;101406.06;5057623;28;20021;-83
2021/01/10 03:17:53;;;;;;;24.23;14.40;;;;;;;-2.56;93.03;101406.28;5057961;28;20503;-83
2021/01/10 03:20:21;;;;;;;25.20;14.77;;;;;;;-2.60;93.46;101412.00;5058384;28;20017;-83
2021/01/10 03:22:48;;;;;;;25.65;15.68;;;;;;;-2.59;93.53;101403.59;5057959;28;20020;-84
2021/01/10 03:25:17;;;;;;;26.35;15.45;;;;;;;-2.56;93.22;101407.13;5057825;28;20036;-83
2021/01/10 03:27:42;;;;;;;29.02;15.70;;;;;;;-2.53;93.38;101408.09;5058494;28;20078;-84
2021/01/10 03:30:10;;;;;;;23.58;14.52;;;;;;;-2.52;92.89;101399.66;5076478;28;20024;-84
2021/01/10 03:32:36;;;;;;;24.95;14.13;;;;;;;-2.48;92.74;101399.91;5076224;28;20029;-84
2021/01/10 03:35:04;;;;;;;25.05;14.23;;;;;;;-2.46;92.88;101408.47;5076459;28;20025;-83
2021/01/10 03:37:29;;;;;;;24.90;14.90;;;;;;;-2.43;92.93;101402.66;5057941;28;20029;-83
2021/01/10 03:39:55;;;;;;;27.02;15.27;;;;;;;-2.42;92.96;101397.66;5057716;28;20097;-83
2021/01/10 03:42:21;;;;;;;25.63;14.70;;;;;;;-2.44;93.12;101403.47;5057981;28;20112;-84
2021/01/10 03:44:46;;;;;;;24.80;13.93;;;;;;;-2.40;93.07;101392.63;5056762;28;20472;-84
2021/01/10 03:47:12;;;;;;;22.70;14.63;;;;;;;-2.44;93.47;101391.63;5074815;28;20043;-84
2021/01/10 03:49:37;;;;;;;24.90;14.43;;;;;;;-2.46;93.45;101390.69;5075557;28;20074;-84
2021/01/10 03:52:02;;;;;;;26.45;14.05;;;;;;;-2.50;93.21;101385.38;5057022;28;20365;-84
2021/01/10 03:54:27;;;;;;;26.23;14.07;;;;;;;-2.52;93.47;101379.34;5057344;28;20016;-84
2021/01/10 03:56:53;;;;;;;29.40;16.30;;;;;;;-2.55;93.85;101391.13;5057153;28;20037;-84
2021/01/10 03:59:18;;;;;;;28.50;15.35;;;;;;;-2.52;93.91;101392.94;5057157;28;20480;-84
2021/01/10 04:01:43;;;;;;;28.60;15.18;;;;;;;-2.52;93.69;101390.41;5057491;28;20031;-84
2021/01/10 04:04:08;;;;;;;27.80;15.23;;;;;;;-2.43;94.01;101389.94;5075798;28;20104;-84
2021/01/10 04:06:34;;;;;;;29.02;16.00;;;;;;;-2.42;93.96;101392.56;5058399;28;20032;-84
2021/01/10 04:08:59;;;;;;;27.98;15.00;;;;;;;-2.44;94.04;101394.16;5075690;28;20032;-84
2021/01/10 04:11:24;;;;;;;36.80;16.45;;;;;;;-2.44;94.25;101390.75;5057195;28;20027;-84
2021/01/10 04:13:50;;;;;;;27.50;15.45;;;;;;;-2.43;94.09;101392.50;5057104;28;20024;-84
2021/01/10 04:16:15;;;;;;;30.15;15.60;;;;;;;-2.50;93.97;101398.94;5057331;28;20025;-84
2021/01/10 04:18:41;;;;;;;25.40;14.85;;;;;;;-2.46;94.27;101403.41;5056931;28;20027;-84
2021/01/10 04:21:07;;;;;;;36.53;14.82;;;;;;;-2.50;94.25;101395.53;5075206;28;20048;-84
2021/01/10 04:23:32;;;;;;;37.08;15.57;;;;;;;-2.59;94.62;101403.59;5057162;28;20013;-84
2021/01/10 04:25:58;;;;;;;28.05;15.20;;;;;;;-2.57;94.93;101402.00;5057287;28;20500;-84
2021/01/10 04:28:23;;;;;;;30.80;16.10;;;;;;;-2.57;95.17;101397.78;5057458;28;20091;-84
2021/01/10 04:30:48;;;;;;;29.30;15.38;;;;;;;-2.48;94.77;101406.66;5059564;28;20028;-83
2021/01/10 04:33:14;;;;;;;33.33;17.00;;;;;;;-2.49;94.80;101400.72;5059701;28;20431;-83
2021/01/10 04:35:39;;;;;;;34.05;15.55;;;;;;;-2.64;95.06;101400.84;5060046;28;20032;-83
2021/01/10 04:38:05;;;;;;;33.55;15.52;;;;;;;-2.57;94.94;101405.41;5060195;28;20048;-83
2021/01/10 04:40:30;;;;;;;31.10;16.30;;;;;;;-2.50;94.84;101400.63;5077771;28;20119;-83
2021/01/10 04:42:55;;;;;;;30.95;16.35;;;;;;;-2.47;95.01;101401.63;5077900;28;20024;-84
2021/01/10 04:45:22;;;;;;;33.17;16.70;;;;;;;-2.44;94.84;101393.31;5059799;28;20028;-84
2021/01/10 04:47:47;;;;;;;31.80;15.13;;;;;;;-2.43;94.93;101395.94;5059289;28;20504;-84
2021/01/10 04:50:13;;;;;;;33.30;16.70;;;;;;;-2.36;94.88;101389.47;5059712;28;20028;-84
2021/01/10 04:52:38;;;;;;;33.55;15.93;;;;;;;-2.37;94.20;101387.69;5060174;28;20024;-84
2021/01/10 04:55:07;;;;;;;33.78;16.27;;;;;;;-2.36;94.67;101390.31;5060234;28;20019;-84
2021/01/10 04:57:33;;;;;;;35.25;17.17;;;;;;;-2.28;94.37;101387.28;5059488;28;20025;-84
2021/01/10 05:00:00;;;;;;;35.13;16.88;;;;;;;-2.28;94.21;101389.81;5077679;28;20021;-84
2021/01/10 05:02:30;;;;;;;30.95;16.27;;;;;;;-2.26;94.17;101384.00;5059517;28;20500;-84
2021/01/10 05:04:56;;;;;;;32.92;16.40;;;;;;;-2.26;94.01;101378.94;5059363;28;20480;-84
2021/01/10 05:07:21;;;;;;;32.28;15.82;;;;;;;-2.20;93.94;101376.66;5076982;28;20043;-84
2021/01/10 05:09:47;;;;;;;31.50;15.15;;;;;;;-2.20;93.88;101370.72;5077444;28;20025;-84
2021/01/10 05:12:13;;;;;;;31.55;16.50;;;;;;;-2.25;94.11;101370.50;5062933;28;20471;-82
2021/01/10 05:14:38;;;;;;;32.88;16.15;;;;;;;-2.20;94.00;101373.28;5063088;28;20059;-82
2021/01/10 05:17:04;;;;;;;31.48;16.05;;;;;;;-2.15;93.84;101374.34;5062187;28;20044;-84
2021/01/10 05:19:30;;;;;;;27.55;15.73;;;;;;;-2.08;93.58;101368.75;5081074;28;20101;-84
2021/01/10 05:21:55;;;;;;;34.00;17.48;;;;;;;-2.07;93.84;101365.41;5062605;28;20024;-83
2021/01/10 05:24:21;;;;;;;32.40;16.05;;;;;;;-2.08;93.38;101359.44;5081310;28;20510;-83
2021/01/10 05:26:47;;;;;;;27.25;14.00;;;;;;;-2.06;93.45;101354.44;5062489;28;20479;-83
2021/01/10 05:29:13;;;;;;;32.63;16.27;;;;;;;-2.06;93.25;101353.56;5062180;28;20027;-83
2021/01/10 05:31:43;;;;;;;31.17;16.20;;;;;;;-2.04;92.90;101364.66;5062399;28;20020;-83
2021/01/10 05:34:12;;;;;;;29.85;16.08;;;;;;;-2.03;92.90;101357.13;5062759;28;20019;-83
2021/01/10 05:36:38;;;;;;;26.38;13.65;;;;;;;-2.04;92.98;101351.97;5061919;28;20361;-83
2021/01/10 05:39:20;;;;;;;30.63;15.95;;;;;;;-2.12;93.25;101355.03;5062822;28;20032;-83
2021/01/10 05:41:56;;;;;;;30.65;16.13;;;;;;;-2.17;93.72;101355.63;5062383;28;20031;-83
2021/01/10 05:44:25;;;;;;;29.42;15.70;;;;;;;-2.15;93.93;101352.34;5079314;28;20051;-83
2021/01/10 05:47:03;;;;;;;31.08;15.32;;;;;;;-2.14;93.99;101351.53;5061949;28;20024;-83
2021/01/10 05:49:29;;;;;;;27.80;14.32;;;;;;;-2.12;93.88;101349.94;5061718;28;20036;-83
2021/01/10 05:51:56;;;;;;;29.42;13.52;;;;;;;-2.08;94.00;101348.41;5079997;28;20027;-83
2021/01/10 05:54:38;;;;;;;27.45;14.27;;;;;;;-2.08;94.16;101344.19;5061866;28;20107;-83
2021/01/10 05:57:08;;;;;;;30.63;14.93;;;;;;;-2.10;94.66;101348.34;5061930;28;20035;-83
2021/01/10 05:59:36;;;;;;;32.25;14.07;;;;;;;-2.08;94.51;101344.19;5061495;28;20051;-83
2021/01/10 06:02:05;;;;;;;27.17;13.60;;;;;;;-2.04;94.02;101336.72;5061988;28;20031;-83
2021/01/10 06:04:31;;;;;;;32.00;14.00;;;;;;;-1.99;94.28;101347.97;5061361;28;20070;-83
2021/01/10 06:06:57;;;;;;;30.10;14.55;;;;;;;-2.06;93.75;101346.81;5061913;28;20162;-83
2021/01/10 06:09:24;;;;;;;29.23;14.48;;;;;;;-2.00;94.20;101352.19;5061615;28;20024;-83
2021/01/10 06:11:49;;;;;;;30.35;13.63;;;;;;;-1.97;93.99;101343.81;5060998;28;20027;-83
2021/01/10 06:14:23;;;;;;;30.08;13.23;;;;;;;-1.99;93.71;101347.97;5061580;28;20024;-83
2021/01/10 06:16:56;;;;;;;28.85;14.80;;;;;;;-2.01;93.73;101347.03;5078606;28;20166;-83
2021/01/10 06:19:27;;;;;;;28.83;14.45;;;;;;;-2.03;94.51;101346.97;5079379;28;20036;-83
2021/01/10 06:21:55;;;;;;;29.85;13.93;;;;;;;-2.00;94.51;101346.22;5060815;28;20027;-83
2021/01/10 06:24:22;;;;;;;28.65;14.38;;;;;;;-2.04;94.39;101345.19;5060382;28;20529;-83
2021/01/10 06:26:57;;;;;;;27.95;15.10;;;;;;;-2.03;94.24;101341.00;5060805;28;20106;-83
2021/01/10 06:29:25;;;;;;;28.85;13.65;;;;;;;-2.01;94.25;101345.34;5060587;28;20028;-83
2021/01/10 06:31:53;;;;;;;25.70;13.10;;;;;;;-2.00;94.37;101348.75;5060646;28;20024;-84
2021/01/10 06:34:20;;;;;;;27.73;14.05;;;;;;;-2.02;94.65;101348.69;5061282;28;20043;-83
2021/01/10 06:36:46;;;;;;;24.63;13.13;;;;;;;-2.02;94.14;101347.84;5060898;28;20063;-83
2021/01/10 06:39:15;;;;;;;28.05;14.35;;;;;;;-1.99;93.99;101347.97;5060763;28;20016;-83
2021/01/10 06:41:46;;;;;;;28.75;14.48;;;;;;;-2.02;94.46;101342.75;5060852;28;20407;-83
2021/01/10 06:44:12;;;;;;;26.23;13.27;;;;;;;-2.03;94.49;101352.06;5060881;28;20078;-83
2021/01/10 06:46:37;;;;;;;28.92;13.57;;;;;;;-2.01;94.24;101347.88;5078564;28;20024;-83
2021/01/10 06:49:06;;;;;;;31.05;14.73;;;;;;;-2.06;94.40;101341.75;5061016;28;20020;-83
2021/01/10 06:51:32;;;;;;;31.73;14.52;;;;;;;-2.02;94.17;101347.84;5061102;28;20494;-83
2021/01/10 06:54:03;;;;;;;27.98;13.70;;;;;;;-2.00;94.31;101338.59;5061725;28;20013;-83
2021/01/10 06:56:29;;;;;;;28.77;14.98;;;;;;;-2.03;94.03;101341.00;5061486;28;20480;-83
2021/01/10 06:59:25;;;;;;;30.67;14.95;;;;;;;-2.04;94.36;101342.66;5079797;28;20036;-83
2021/01/10 07:01:50;;;;;;;30.17;14.40;;;;;;;-2.07;94.70;101342.53;5080802;28;20095;-83
2021/01/10 07:04:16;;;;;;;31.05;15.63;;;;;;;-2.02;94.67;101337.66;5061313;28;20032;-83
2021/01/10 07:06:46;;;;;;;25.30;13.20;;;;;;;-2.00;94.13;101341.13;5061089;28;20115;-83
2021/01/10 07:09:12;;;;;;;26.23;13.38;;;;;;;-1.96;94.02;101340.47;5060762;28;20024;-83
2021/01/10 07:11:38;;;;;;;27.13;12.68;;;;;;;-1.95;93.32;101347.28;5060771;28;20032;-83
2021/01/10 07:14:03;;;;;;;22.27;12.80;;;;;;;-1.90;93.15;101339.09;5079222;28;20025;-83
2021/01/10 07:16:28;;;;;;;19.83;11.57;;;;;;;-1.83;93.43;101339.34;5061184;28;20036;-82
2021/01/10 07:18:59;;;;;;;19.80;11.38;;;;;;;-1.82;93.09;101336.88;5079503;28;20669;-83
2021/01/10 07:21:31;;;;;;;21.25;11.95;;;;;;;-1.81;93.44;101340.31;5061027;28;20020;-82
2021/01/10 07:24:15;;;;;;;18.50;10.57;;;;;;;-1.74;92.08;101342.31;5078942;28;20027;-82
2021/01/10 07:26:45;;;;;;;20.55;10.68;;;;;;;-1.75;93.14;101338.91;5078822;28;20082;-82
2021/01/10 07:29:29;;;;;;;20.90;10.90;;;;;;;-1.71;92.36;101334.81;5061912;28;20089;-83
2021/01/10 07:32:03;;;;;;;17.73;9.52;;;;;;;-1.71;92.03;101340.75;5062392;28;20027;-83
2021/01/10 07:34:30;;;;;;;17.50;9.48;;;;;;;-1.64;92.16;101337.69;5060121;28;20024;-83
2021/01/10 07:37:05;;;;;;;16.92;9.23;;;;;;;-1.59;91.87;101332.81;5060278;28;20124;-83
2021/01/10 07:39:37;;;;;;;15.05;8.20;;;;;;;-1.59;91.76;101331.94;5060803;28;20016;-83
2021/01/10 07:42:09;;;;;;;16.75;8.80;;;;;;;-1.60;91.59;101337.81;5059903;28;20024;-83
2021/01/10 07:44:54;;;;;;;18.55;8.30;;;;;;;-1.58;91.60;101336.22;5059516;28;20024;-83
2021/01/10 07:47:31;;;;;;;16.08;8.07;;;;;;;-1.58;91.58;101341.31;5059828;28;20063;-83
2021/01/10 07:50:04;;;;;;;16.10;9.25;;;;;;;-1.63;92.37;101343.66;5059512;28;20024;-83
2021/01/10 07:52:42;;;;;;;16.55;8.85;;;;;;;-1.60;92.06;101332.72;5059816;28;20021;-83
2021/01/10 07:55:22;;;;;;;15.43;8.50;;;;;;;-1.59;92.35;101342.13;5060414;28;20476;-83
2021/01/10 07:57:47;;;;;;;16.30;9.15;;;;;;;-1.59;92.21;101342.13;5060358;28;20029;-83
2021/01/10 08:00:27;;;;;;;16.93;9.10;;;;;;;-1.62;92.16;101346.25;5059913;28;20118;-82
2021/01/10 08:03:01;;;;;;;16.80;8.93;;;;;;;-1.54;91.71;101333.88;5078750;28;20259;-83
2021/01/10 08:05:42;;;;;;;18.73;9.60;;;;;;;-1.53;92.19;101344.94;5061430;28;20028;-82
2021/01/10 08:08:13;;;;;;;18.25;9.40;;;;;;;-1.59;91.82;101332.81;5079027;28;20028;-82
2021/01/10 08:10:50;;;;;;;21.67;11.02;;;;;;;-1.53;92.38;101335.63;5060904;28;20422;-83
2021/01/10 08:13:44;;;;;;;30.45;16.23;;;;;;;-1.56;92.21;101335.47;5060379;28;20023;-82
2021/01/10 08:16:11;;;;;;;22.70;12.68;;;;;;;-1.58;92.62;101342.16;5053065;28;20086;-83
2021/01/10 08:18:47;;;;;;;21.98;10.68;;;;;;;-1.55;92.11;101342.28;5079078;28;20031;-83
2021/01/10 08:21:14;;;;;;;25.40;10.23;;;;;;;-1.38;93.15;101348.13;5061263;28;20029;-84
2021/01/10 08:23:41;;;;;;;19.52;10.30;;;;;;;-1.38;92.08;101347.25;5080409;28;20380;-83
2021/01/10 08:26:15;;;;;;;22.90;11.50;;;;;;;-1.38;91.69;101352.34;5078501;28;20028;-82
2021/01/10 08:28:43;;;;;;;23.85;11.75;;;;;;;-1.41;91.96;101345.44;5077394;28;20032;-82
2021/01/10 08:31:15;;;;;;;18.88;10.70;;;;;;;-1.37;92.13;101349.00;5059242;28;20024;-82
2021/01/10 08:33:41;;;;;;;21.15;10.88;;;;;;;-1.40;91.95;101337.00;5078015;28;20059;-83
2021/01/10 08:36:09;;;;;;;19.67;10.35;;;;;;;-1.37;91.72;101342.22;5078021;28;20044;-83
2021/01/10 08:38:37;;;;;;;20.90;11.48;;;;;;;-1.25;91.14;101341.88;5108258;23;20047;-83
2021/01/10 08:41:02;;;;;;;22.77;12.15;;;;;;;-1.23;91.11;101345.34;5100136;28;20084;-84
2021/01/10 08:43:27;;;;;;;18.92;9.18;;;;;;;-1.22;91.17;101340.34;5113608;28;20533;-85
2021/01/10 08:45:53;;;;;;;19.65;10.63;;;;;;;-1.12;90.40;101344.13;5097129;28;20015;-83
2021/01/10 08:48:18;;;;;;;19.65;10.20;;;;;;;-1.10;90.18;101342.53;5099761;28;20022;-85
2021/01/10 08:50:43;;;;;;;19.20;10.05;;;;;;;-1.03;90.24;101348.72;5099811;28;20525;-85
2021/01/10 08:53:08;;;;;;;20.92;9.85;;;;;;;-0.94;90.15;101344.88;5118025;28;20042;-84
2021/01/10 08:55:39;;;;;;;20.23;11.40;;;;;;;-0.85;90.27;101339.31;5099536;28;20122;-84
2021/01/10 08:58:09;;;;;;;20.92;10.13;;;;;;;-0.87;89.81;101353.63;5117660;28;20015;-84
2021/01/10 09:00:39;;;;;;;18.55;9.00;;;;;;;-0.84;90.15;101347.81;5099274;28;20031;-84
2021/01/10 09:03:16;;;;;;;14.90;6.70;;;;;;;-0.82;89.91;101352.16;5099102;28;20062;-84
2021/01/10 09:05:44;;;;;;;22.65;10.60;;;;;;;-0.79;89.68;101349.75;5099121;28;20058;-84
2021/01/10 09:08:33;;;;;;;26.75;11.52;;;;;;;-0.73;89.27;101349.97;5098997;28;20455;-84
2021/01/10 09:11:10;;;;;;;25.33;12.60;;;;;;;-0.73;89.84;101341.47;5098994;28;20030;-83
2021/01/10 09:13:37;;;;;;;23.48;10.38;;;;;;;-0.72;89.63;101338.13;5099576;28;20050;-83
2021/01/10 09:16:03;;;;;;;23.30;11.55;;;;;;;-0.53;88.68;101338.03;5099246;28;20053;-84
2021/01/10 09:18:33;;;;;;;21.73;11.77;;;;;;;-0.41;88.95;101330.00;5099349;28;20024;-84
2021/01/10 09:21:07;;;;;;;25.17;12.23;;;;;;;-0.29;88.31;101325.38;5099555;28;20023;-85
2021/01/10 09:23:33;;;;;;;24.95;11.48;;;;;;;-0.15;87.95;101333.56;5100233;28;20111;-84
2021/01/10 09:25:58;;;;;;;23.13;11.93;;;;;;;-0.21;87.34;101335.00;5099058;28;20056;-84
2021/01/10 09:28:25;;;;;;;19.27;10.13;;;;;;;0.05;88.70;101334.28;5099005;28;20612;-86
2021/01/10 09:30:57;;;;;;;22.52;12.23;;;;;;;0.03;87.11;101340.13;5099171;28;20035;-86
2021/01/10 09:33:33;;;;;;;23.25;12.05;;;;;;;0.05;87.14;101334.28;5098802;28;20012;-86
2021/01/10 09:36:00;;;;;;;23.63;11.85;;;;;;;-0.16;87.23;101334.34;5098784;28;20398;-84
2021/01/10 09:38:29;;;;;;;22.67;11.55;;;;;;;-0.38;88.60;101337.75;5098572;28;20403;-84
2021/01/10 09:41:14;;;;;;;19.83;11.73;;;;;;;-0.45;88.87;101340.03;5098844;28;20425;-85
2021/01/10 09:43:43;;;;;;;;;;;;;;;-0.40;88.98;101343.59;5117723;28;20015;-85
2021/01/10 09:46:27;;;;;;;21.70;9.40;;;;;;;-0.50;88.82;101347.47;5098667;28;19915;-85
2021/01/10 09:48:54;;;;;;;18.23;8.93;;;;;;;-0.51;88.57;101349.16;5097998;28;20051;-85
2021/01/10 09:51:21;;;;;;;25.23;12.88;;;;;;;-0.37;88.48;101354.81;5098158;28;20024;-84
2021/01/10 09:53:49;;;;;;;24.70;12.30;;;;;;;-0.45;89.51;101358.72;5098205;28;20019;-85
2021/01/10 09:56:34;;;;;;;26.38;13.18;;;;;;;-0.39;89.34;101358.09;5097546;28;20414;-85
2021/01/10 09:58:59;;;;;;;22.73;11.70;;;;;;;-0.26;88.67;101362.84;5097841;28;20020;-84
2021/01/10 10:01:36;;;;;;;24.75;12.20;;;;;;;-0.14;87.81;101354.81;5098054;28;20032;-84
2021/01/10 10:04:01;;;;;;;23.55;10.43;;;;;;;0.08;86.66;101359.91;5097820;28;20494;-85
2021/01/10 10:06:26;;;;;;;24.70;12.55;;;;;;;0.42;85.99;101359.44;5116645;28;20110;-85
2021/01/10 10:08:55;;;;;;;24.95;12.38;;;;;;;0.44;86.04;101357.81;5098000;28;20050;-84
2021/01/10 10:11:20;;;;;;;26.25;13.10;;;;;;;0.63;85.66;101356.78;5098033;28;20110;-85
2021/01/10 10:13:46;;;;;;;20.50;10.80;;;;;;;0.61;85.30;101349.88;5097768;28;20047;-85
2021/01/10 10:16:17;;;;;;;23.02;12.30;;;;;;;0.47;85.91;101340.91;5097747;28;20020;-84
2021/01/10 10:18:43;;;;;;;23.23;12.57;;;;;;;0.54;85.89;101345.41;5097398;28;20028;-85
2021/01/10 10:21:08;;;;;;;23.05;12.65;;;;;;;0.22;87.11;101340.88;5097657;28;20026;-85
2021/01/10 10:23:33;;;;;;;23.95;12.55;;;;;;;0.25;87.03;101346.88;5097367;28;20495;-85
2021/01/10 10:25:58;;;;;;;23.55;12.60;;;;;;;0.20;87.34;101345.03;5097326;28;20027;-85
2021/01/10 10:28:24;;;;;;;21.55;12.00;;;;;;;0.17;87.79;101344.06;5097335;28;20024;-85
2021/01/10 10:30:49;;;;;;;23.13;11.95;;;;;;;0.21;87.12;101338.25;5097391;28;20035;-85
2021/01/10 10:33:16;;;;;;;24.15;12.85;;;;;;;0.32;87.07;101341.22;5115531;28;20028;-85
2021/01/10 10:35:41;;;;;;;20.23;11.07;;;;;;;0.57;86.24;101331.06;5097189;28;20034;-85
2021/01/10 10:38:06;;;;;;;22.20;12.43;;;;;;;0.64;85.96;101332.13;5097127;28;20019;-85
2021/01/10 10:40:32;;;;;;;23.60;11.52;;;;;;;0.47;86.19;101329.00;5097296;28;20027;-85
2021/01/10 10:42:58;;;;;;;23.55;11.82;;;;;;;0.61;86.18;101332.88;5115284;28;20020;-85
2021/01/10 10:45:23;;;;;;;24.38;10.90;;;;;;;0.65;85.38;101332.19;5096957;28;20031;-85
2021/01/10 10:47:49;;;;;;;24.45;11.07;;;;;;;0.51;86.09;101330.84;5097078;28;20043;-85
2021/01/10 10:50:14;;;;;;;23.35;12.02;;;;;;;0.65;86.28;101337.31;5097124;28;20096;-85
2021/01/10 10:52:43;;;;;;;23.27;12.18;;;;;;;0.45;86.52;101328.94;5115229;28;20027;-85
2021/01/10 10:55:11;;;;;;;24.98;9.00;;;;;;;0.48;86.47;101337.53;5098021;28;20019;-85
2021/01/10 10:57:37;;;;;;;23.38;12.05;;;;;;;0.72;85.66;101334.97;5114980;28;20071;-85
2021/01/10 11:00:05;;;;;;;24.73;12.30;;;;;;;0.80;85.19;101315.63;5096845;28;20027;-85
2021/01/10 11:02:31;;;;;;;24.52;12.50;;;;;;;1.06;84.52;101307.16;5096654;28;20054;-85
2021/01/10 11:04:56;;;;;;;26.60;12.13;;;;;;;0.68;85.99;101313.56;5096500;28;20055;-85
2021/01/10 11:07:22;;;;;;;25.80;11.32;;;;;;;0.97;84.84;101309.41;5096499;28;20035;-85
2021/01/10 11:09:47;;;;;;;23.17;13.07;;;;;;;0.96;84.52;101300.03;5113989;28;20027;-85
2021/01/10 11:12:14;;;;;;;25.85;12.52;;;;;;;0.67;85.47;101293.94;5114985;28;20024;-86
2021/01/10 11:14:40;;;;;;;23.70;13.02;;;;;;;0.98;84.78;101295.81;5096564;28;20015;-85
2021/01/10 11:17:10;;;;;;;23.05;12.27;;;;;;;0.64;86.23;101301.50;5115172;28;20050;-86